sensor_id;sensor_type;location;lat;lon;timestamp;pressure;altitude;pressure_sealevel;temperature;humidity
6034;BME280;3045;43.226;27.858;2023-02-02T00:01:17;147178.84;;;4.48;100.00
6034;BME280;3045;43.226;27.858;2023-02-02T00:03:46;147188.91;;;4.52;100.00
6034;BME280;3045;43.226;27.858;2023-02-02T00:06:15;147192.69;;;4.53;100.00
6034;BME280;3045;43.226;27.858;2023-02-02T00:08:42;147202.75;;;4.57;100.00
6034;BME280;3045;43.226;27.858;2023-02-02T00:11:08;147204.03;;;4.58;100.00
6034;BME280;3045;43.226;27.858;2023-02-02T00:13:35;147193.97;;;4.54;100.00
6034;BME280;3045;43.226;27.858;2023-02-02T00:19:05;147196.44;;;4.55;100.00
6034;BME280;3045;43.226;27.858;2023-02-02T00:21:32;147204.03;;;4.58;100.00
6034;BME280;3045;43.226;27.858;2023-02-02T00:23:59;147230.41;;;4.69;100.00
6034;BME280;3045;43.226;27.858;2023-02-02T00:26:26;147236.69;;;4.71;100.00
6034;BME280;3045;43.226;27.858;2023-02-02T00:28:53;147232.94;;;4.70;100.00
6034;BME280;3045;43.226;27.858;2023-02-02T00:31:20;147251.78;;;4.77;100.00
6034;BME280;3045;43.226;27.858;2023-02-02T00:33:48;147248.00;;;4.76;100.00
6034;BME280;3045;43.226;27.858;2023-02-02T00:36:17;147246.78;;;4.75;100.00
6034;BME280;3045;43.226;27.858;2023-02-02T00:38:44;147251.78;;;4.77;100.00
6034;BME280;3045;43.226;27.858;2023-02-02T00:41:12;147234.19;;;4.70;100.00
6034;BME280;3045;43.226;27.858;2023-02-02T00:43:39;147236.69;;;4.71;100.00
6034;BME280;3045;43.226;27.858;2023-02-02T00:46:09;147264.38;;;4.82;100.00
6034;BME280;3045;43.226;27.858;2023-02-02T00:48:36;147269.41;;;4.84;100.00
6034;BME280;3045;43.226;27.858;2023-02-02T00:51:03;147271.91;;;4.85;100.00
6034;BME280;3045;43.226;27.858;2023-02-02T00:53:32;147256.84;;;4.79;100.00
6034;BME280;3045;43.226;27.858;2023-02-02T00:55:58;147299.63;;;4.96;100.00
6034;BME280;3045;43.226;27.858;2023-02-02T00:58:25;147341.16;;;5.13;100.00
6034;BME280;3045;43.226;27.858;2023-02-02T01:00:52;147344.88;;;5.15;100.00
6034;BME280;3045;43.226;27.858;2023-02-02T01:03:19;147363.75;;;5.22;100.00
6034;BME280;3045;43.226;27.858;2023-02-02T01:05:46;147353.69;;;5.18;100.00
6034;BME280;3045;43.226;27.858;2023-02-02T01:08:14;147333.56;;;5.10;100.00
6034;BME280;3045;43.226;27.858;2023-02-02T01:10:42;147380.13;;;5.29;100.00
6034;BME280;3045;43.226;27.858;2023-02-02T01:13:09;147396.47;;;5.35;100.00
6034;BME280;3045;43.226;27.858;2023-02-02T01:15:36;147407.81;;;5.40;100.00
6034;BME280;3045;43.226;27.858;2023-02-02T01:18:03;147419.13;;;5.44;100.00
6034;BME280;3045;43.226;27.858;2023-02-02T01:20:30;147430.47;;;5.49;100.00
6034;BME280;3045;43.226;27.858;2023-02-02T01:22:57;147420.41;;;5.45;100.00
6034;BME280;3045;43.226;27.858;2023-02-02T01:25:24;147377.63;;;5.28;100.00
6034;BME280;3045;43.226;27.858;2023-02-02T01:27:53;147375.09;;;5.27;100.00
6034;BME280;3045;43.226;27.858;2023-02-02T01:30:20;147401.53;;;5.37;100.00
6034;BME280;3045;43.226;27.858;2023-02-02T01:32:47;147399.00;;;5.36;100.00
6034;BME280;3045;43.226;27.858;2023-02-02T01:35:14;147446.88;;;5.56;100.00
6034;BME280;3045;43.226;27.858;2023-02-02T01:37:40;147467.00;;;5.64;100.00
6034;BME280;3045;43.226;27.858;2023-02-02T01:40:10;147482.09;;;5.70;100.00
6034;BME280;3045;43.226;27.858;2023-02-02T01:42:37;147498.47;;;5.76;100.00
6034;BME280;3045;43.226;27.858;2023-02-02T01:45:21;147512.28;;;5.82;100.00
6034;BME280;3045;43.226;27.858;2023-02-02T01:47:51;147480.81;;;5.69;100.00
6034;BME280;3045;43.226;27.858;2023-02-02T01:50:26;147521.13;;;5.85;100.00
6034;BME280;3045;43.226;27.858;2023-02-02T01:52:55;147511.03;;;5.81;100.00
6034;BME280;3045;43.226;27.858;2023-02-02T01:55:25;147526.19;;;5.87;100.00
6034;BME280;3045;43.226;27.858;2023-02-02T01:57:56;147516.09;;;5.83;100.00
6034;BME280;3045;43.226;27.858;2023-02-02T02:00:25;147513.56;;;5.82;100.00
6034;BME280;3045;43.226;27.858;2023-02-02T02:02:56;147506.00;;;5.79;100.00
6034;BME280;3045;43.226;27.858;2023-02-02T02:05:27;147453.13;;;5.58;100.00
6034;BME280;3045;43.226;27.858;2023-02-02T02:08:01;147427.94;;;5.48;100.00
6034;BME280;3045;43.226;27.858;2023-02-02T02:10:29;147401.53;;;5.37;100.00
6034;BME280;3045;43.226;27.858;2023-02-02T02:12:56;147375.09;;;5.27;100.00
6034;BME280;3045;43.226;27.858;2023-02-02T02:15:26;147399.00;;;5.36;100.00
6034;BME280;3045;43.226;27.858;2023-02-02T02:18:24;147407.81;;;5.40;100.00
6034;BME280;3045;43.226;27.858;2023-02-02T02:21:29;147402.81;;;5.38;100.00
6034;BME280;3045;43.226;27.858;2023-02-02T02:24:52;147375.09;;;5.27;100.00
6034;BME280;3045;43.226;27.858;2023-02-02T02:28:19;147332.28;;;5.10;100.00
6034;BME280;3045;43.226;27.858;2023-02-02T02:31:17;147303.38;;;4.98;100.00
6034;BME280;3045;43.226;27.858;2023-02-02T02:33:54;147293.31;;;4.94;100.00
6034;BME280;3045;43.226;27.858;2023-02-02T02:36:28;147271.91;;;4.85;100.00
6034;BME280;3045;43.226;27.858;2023-02-02T02:39:04;147244.25;;;4.74;100.00
6034;BME280;3045;43.226;27.858;2023-02-02T02:41:40;147217.81;;;4.64;100.00
6034;BME280;3045;43.226;27.858;2023-02-02T02:44:11;147182.63;;;4.49;100.00
6034;BME280;3045;43.226;27.858;2023-02-02T02:46:39;147187.63;;;4.51;100.00
6034;BME280;3045;43.226;27.858;2023-02-02T02:49:10;147156.22;;;4.39;100.00
6034;BME280;3045;43.226;27.858;2023-02-02T02:51:43;147147.41;;;4.35;100.00
6034;BME280;3045;43.226;27.858;2023-02-02T02:54:11;147127.28;;;4.27;100.00
6034;BME280;3045;43.226;27.858;2023-02-02T02:56:46;147061.91;;;4.01;100.00
6034;BME280;3045;43.226;27.858;2023-02-02T02:59:22;147094.59;;;4.14;100.00
6034;BME280;3045;43.226;27.858;2023-02-02T03:01:54;147079.50;;;4.08;100.00
6034;BME280;3045;43.226;27.858;2023-02-02T03:04:31;147055.66;;;3.98;100.00
6034;BME280;3045;43.226;27.858;2023-02-02T03:07:05;147071.97;;;4.05;100.00
6034;BME280;3045;43.226;27.858;2023-02-02T03:09:36;147071.97;;;4.05;100.00
6034;BME280;3045;43.226;27.858;2023-02-02T03:12:06;147041.78;;;3.93;100.00
6034;BME280;3045;43.226;27.858;2023-02-02T03:14:33;147068.16;;;4.03;100.00
6034;BME280;3045;43.226;27.858;2023-02-02T03:17:00;147030.47;;;3.88;100.00
6034;BME280;3045;43.226;27.858;2023-02-02T03:19:29;146967.63;;;3.63;100.00
6034;BME280;3045;43.226;27.858;2023-02-02T03:21:56;146987.75;;;3.71;100.00
6034;BME280;3045;43.226;27.858;2023-02-02T03:24:23;146970.16;;;3.64;100.00
6034;BME280;3045;43.226;27.858;2023-02-02T03:26:50;146990.28;;;3.72;100.00
6034;BME280;3045;43.226;27.858;2023-02-02T03:29:17;146981.47;;;3.68;100.00
6034;BME280;3045;43.226;27.858;2023-02-02T03:31:45;146985.22;;;3.70;100.00
6034;BME280;3045;43.226;27.858;2023-02-02T03:34:12;146955.06;;;3.58;100.00
6034;BME280;3045;43.226;27.858;2023-02-02T03:36:41;146987.75;;;3.71;100.00
6034;BME280;3045;43.226;27.858;2023-02-02T03:39:08;146991.53;;;3.73;100.00
6034;BME280;3045;43.226;27.858;2023-02-02T03:41:34;146977.69;;;3.67;100.00
6034;BME280;3045;43.226;27.858;2023-02-02T03:44:01;146985.22;;;3.70;100.00
6034;BME280;3045;43.226;27.858;2023-02-02T03:46:28;146985.22;;;3.70;100.00
6034;BME280;3045;43.226;27.858;2023-02-02T03:48:55;146980.22;;;3.68;100.00
6034;BME280;3045;43.226;27.858;2023-02-02T03:51:22;146967.63;;;3.63;100.00
6034;BME280;3045;43.226;27.858;2023-02-02T03:53:50;146918.66;;;3.43;100.00
6034;BME280;3045;43.226;27.858;2023-02-02T03:56:17;146955.06;;;3.58;100.00
6034;BME280;3045;43.226;27.858;2023-02-02T03:58:44;146947.53;;;3.55;100.00
6034;BME280;3045;43.226;27.858;2023-02-02T04:01:12;146929.97;;;3.48;100.00
6034;BME280;3045;43.226;27.858;2023-02-02T04:03:40;146924.91;;;3.46;100.00
6034;BME280;3045;43.226;27.858;2023-02-02T04:06:07;146903.56;;;3.37;100.00
6034;BME280;3045;43.226;27.858;2023-02-02T04:08:34;146904.81;;;3.38;100.00
6034;BME280;3045;43.226;27.858;2023-02-02T04:11:03;146911.09;;;3.40;100.00
6034;BME280;3045;43.226;27.858;2023-02-02T04:13:29;146896.03;;;3.34;100.00
6034;BME280;3045;43.226;27.858;2023-02-02T04:15:57;146892.25;;;3.33;100.00
6034;BME280;3045;43.226;27.858;2023-02-02T04:18:25;146844.53;;;3.13;100.00
6034;BME280;3045;43.226;27.858;2023-02-02T04:20:56;146867.09;;;3.22;100.00
6034;BME280;3045;43.226;27.858;2023-02-02T04:23:23;146864.63;;;3.21;100.00
6034;BME280;3045;43.226;27.858;2023-02-02T04:25:50;146824.44;;;3.05;100.00
6034;BME280;3045;43.226;27.858;2023-02-02T04:28:19;146849.53;;;3.15;100.00
6034;BME280;3045;43.226;27.858;2023-02-02T04:30:48;146860.84;;;3.20;100.00
6034;BME280;3045;43.226;27.858;2023-02-02T04:33:15;146863.34;;;3.21;100.00
6034;BME280;3045;43.226;27.858;2023-02-02T04:35:42;146858.31;;;3.19;100.00
6034;BME280;3045;43.226;27.858;2023-02-02T04:38:09;146888.47;;;3.31;100.00
6034;BME280;3045;43.226;27.858;2023-02-02T04:40:37;146911.09;;;3.40;100.00
6034;BME280;3045;43.226;27.858;2023-02-02T04:43:04;146943.75;;;3.53;100.00
6034;BME280;3045;43.226;27.858;2023-02-02T04:45:33;146965.13;;;3.62;100.00
6034;BME280;3045;43.226;27.858;2023-02-02T04:48:01;146941.22;;;3.52;100.00
6034;BME280;3045;43.226;27.858;2023-02-02T04:50:27;146992.78;;;3.73;100.00
6034;BME280;3045;43.226;27.858;2023-02-02T04:52:54;146987.75;;;3.71;100.00
6034;BME280;3045;43.226;27.858;2023-02-02T04:55:21;146989.00;;;3.72;100.00
6034;BME280;3045;43.226;27.858;2023-02-02T04:57:48;146990.28;;;3.72;100.00
6034;BME280;3045;43.226;27.858;2023-02-02T05:00:16;146960.13;;;3.60;100.00
6034;BME280;3045;43.226;27.858;2023-02-02T05:02:44;146971.44;;;3.64;100.00
6034;BME280;3045;43.226;27.858;2023-02-02T05:05:12;146973.91;;;3.65;100.00
6034;BME280;3045;43.226;27.858;2023-02-02T05:07:40;146977.69;;;3.67;100.00
6034;BME280;3045;43.226;27.858;2023-02-02T05:10:07;147002.84;;;3.77;100.00
6034;BME280;3045;43.226;27.858;2023-02-02T05:12:35;147005.31;;;3.78;100.00
6034;BME280;3045;43.226;27.858;2023-02-02T05:15:02;146990.28;;;3.72;100.00
6034;BME280;3045;43.226;27.858;2023-02-02T05:17:29;147017.91;;;3.83;100.00
6034;BME280;3045;43.226;27.858;2023-02-02T05:19:58;147027.97;;;3.87;100.00
6034;BME280;3045;43.226;27.858;2023-02-02T05:22:25;147034.28;;;3.90;100.00
6034;BME280;3045;43.226;27.858;2023-02-02T05:24:51;147019.16;;;3.84;100.00
6034;BME280;3045;43.226;27.858;2023-02-02T05:27:18;147040.53;;;3.92;100.00
6034;BME280;3045;43.226;27.858;2023-02-02T05:29:45;147046.81;;;3.95;100.00
6034;BME280;3045;43.226;27.858;2023-02-02T05:32:12;147025.44;;;3.86;100.00
6034;BME280;3045;43.226;27.858;2023-02-02T05:34:39;147058.13;;;3.99;100.00
6034;BME280;3045;43.226;27.858;2023-02-02T05:37:08;147065.69;;;4.02;100.00
6034;BME280;3045;43.226;27.858;2023-02-02T05:39:34;147065.69;;;4.02;100.00
6034;BME280;3045;43.226;27.858;2023-02-02T05:42:01;147083.28;;;4.09;100.00
6034;BME280;3045;43.226;27.858;2023-02-02T05:44:28;147088.34;;;4.11;100.00
6034;BME280;3045;43.226;27.858;2023-02-02T05:46:55;147128.56;;;4.28;100.00
6034;BME280;3045;43.226;27.858;2023-02-02T05:49:22;147153.69;;;4.38;100.00
6034;BME280;3045;43.226;27.858;2023-02-02T05:51:51;147178.84;;;4.48;100.00
6034;BME280;3045;43.226;27.858;2023-02-02T05:54:20;147206.50;;;4.59;100.00
6034;BME280;3045;43.226;27.858;2023-02-02T05:56:49;147186.38;;;4.51;100.00
6034;BME280;3045;43.226;27.858;2023-02-02T05:59:16;147256.84;;;4.79;100.00
6034;BME280;3045;43.226;27.858;2023-02-02T06:01:44;147295.84;;;4.95;100.00
6034;BME280;3045;43.226;27.858;2023-02-02T06:04:11;147424.19;;;5.46;100.00
6034;BME280;3045;43.226;27.858;2023-02-02T06:06:38;147490.88;;;5.73;100.00
6034;BME280;3045;43.226;27.858;2023-02-02T06:09:05;147543.81;;;5.94;100.00
6034;BME280;3045;43.226;27.858;2023-02-02T06:11:34;147572.81;;;6.06;100.00
6034;BME280;3045;43.226;27.858;2023-02-02T06:14:01;147606.78;;;6.20;100.00
6034;BME280;3045;43.226;27.858;2023-02-02T06:16:28;147763.03;;;6.82;100.00
6034;BME280;3045;43.226;27.858;2023-02-02T06:18:55;147882.75;;;7.30;100.00
6034;BME280;3045;43.226;27.858;2023-02-02T06:21:22;147931.94;;;7.50;100.00
6034;BME280;3045;43.226;27.858;2023-02-02T06:23:49;148002.53;;;7.78;100.00
6034;BME280;3045;43.226;27.858;2023-02-02T06:26:17;148054.25;;;7.99;100.00
6034;BME280;3045;43.226;27.858;2023-02-02T06:28:49;148094.59;;;8.15;100.00
6034;BME280;3045;43.226;27.858;2023-02-02T06:31:17;148127.41;;;8.28;100.00
6034;BME280;3045;43.226;27.858;2023-02-02T06:33:44;148212.00;;;8.62;100.00
6034;BME280;3045;43.226;27.858;2023-02-02T06:36:11;148306.66;;;9.00;100.00
6034;BME280;3045;43.226;27.858;2023-02-02T06:38:40;148295.31;;;8.96;100.00
6034;BME280;3045;43.226;27.858;2023-02-02T06:41:07;148320.56;;;9.06;100.00
6034;BME280;3045;43.226;27.858;2023-02-02T06:43:33;148242.28;;;8.75;100.00
6034;BME280;3045;43.226;27.858;2023-02-02T06:46:02;148208.25;;;8.61;100.00
6034;BME280;3045;43.226;27.858;2023-02-02T06:48:29;148176.69;;;8.48;100.00
6034;BME280;3045;43.226;27.858;2023-02-02T06:50:57;148088.31;;;8.13;100.00
6034;BME280;3045;43.226;27.858;2023-02-02T06:53:24;147974.81;;;7.67;100.00
6034;BME280;3045;43.226;27.858;2023-02-02T06:55:52;147954.66;;;7.59;100.00
6034;BME280;3045;43.226;27.858;2023-02-02T06:58:19;147978.56;;;7.69;100.00
6034;BME280;3045;43.226;27.858;2023-02-02T07:00:46;148052.97;;;7.99;100.00
6034;BME280;3045;43.226;27.858;2023-02-02T07:03:15;148104.69;;;8.19;100.00
6034;BME280;3045;43.226;27.858;2023-02-02T07:05:42;148150.19;;;8.38;100.00
6034;BME280;3045;43.226;27.858;2023-02-02T07:08:09;148326.88;;;9.08;100.00
6034;BME280;3045;43.226;27.858;2023-02-02T07:10:37;148445.56;;;9.56;100.00
6034;BME280;3045;43.226;27.858;2023-02-02T07:13:04;148632.63;;;10.31;100.00
6034;BME280;3045;43.226;27.858;2023-02-02T07:15:31;148674.34;;;10.47;100.00
6034;BME280;3045;43.226;27.858;2023-02-02T07:17:58;148809.59;;;11.02;100.00
6034;BME280;3045;43.226;27.858;2023-02-02T07:20:27;148928.47;;;11.49;100.00
6034;BME280;3045;43.226;27.858;2023-02-02T07:22:55;148981.63;;;11.70;94.49
6034;BME280;3045;43.226;27.858;2023-02-02T07:25:22;149087.97;;;12.13;90.89
6034;BME280;3045;43.226;27.858;2023-02-02T07:27:51;149058.81;;;12.01;90.33
6034;BME280;3045;43.226;27.858;2023-02-02T07:30:19;149241.09;;;12.74;83.59
6034;BME280;3045;43.226;27.858;2023-02-02T07:32:46;149305.69;;;13.00;80.31
6034;BME280;3045;43.226;27.858;2023-02-02T07:35:14;149314.53;;;13.03;81.64
6034;BME280;3045;43.226;27.858;2023-02-02T07:37:42;149171.50;;;12.46;83.30
6034;BME280;3045;43.226;27.858;2023-02-02T07:40:10;149222.13;;;12.66;83.14
6034;BME280;3045;43.226;27.858;2023-02-02T07:42:37;149287.97;;;12.93;81.72
6034;BME280;3045;43.226;27.858;2023-02-02T07:45:04;149393.16;;;13.35;79.19
6034;BME280;3045;43.226;27.858;2023-02-02T07:47:32;149486.91;;;13.72;77.40
6034;BME280;3045;43.226;27.858;2023-02-02T07:49:59;149564.22;;;14.03;73.93
6034;BME280;3045;43.226;27.858;2023-02-02T07:52:28;149645.38;;;14.35;73.32
6034;BME280;3045;43.226;27.858;2023-02-02T07:54:56;149644.06;;;14.35;72.65
6034;BME280;3045;43.226;27.858;2023-02-02T07:57:23;149587.03;;;14.12;71.58
6034;BME280;3045;43.226;27.858;2023-02-02T07:59:50;149692.31;;;14.54;69.11
6034;BME280;3045;43.226;27.858;2023-02-02T08:02:19;149588.31;;;14.12;71.02
6034;BME280;3045;43.226;27.858;2023-02-02T08:04:45;149649.19;;;14.37;70.42
6034;BME280;3045;43.226;27.858;2023-02-02T08:07:13;149792.47;;;14.94;68.49
6034;BME280;3045;43.226;27.858;2023-02-02T08:09:45;149935.88;;;15.51;65.24
6034;BME280;3045;43.226;27.858;2023-02-02T08:12:14;149981.59;;;15.69;64.29
6034;BME280;3045;43.226;27.858;2023-02-02T08:14:41;149868.59;;;15.24;64.80
6034;BME280;3045;43.226;27.858;2023-02-02T08:17:08;149885.09;;;15.31;64.14
6034;BME280;3045;43.226;27.858;2023-02-02T08:19:35;149831.81;;;15.09;64.76
6034;BME280;3045;43.226;27.858;2023-02-02T08:22:02;149862.25;;;15.22;65.10
6034;BME280;3045;43.226;27.858;2023-02-02T08:24:29;149999.34;;;15.76;63.51
6034;BME280;3045;43.226;27.858;2023-02-02T08:26:55;149956.19;;;15.59;62.68
6034;BME280;3045;43.226;27.858;2023-02-02T08:29:24;150022.19;;;15.85;61.04
6034;BME280;3045;43.226;27.858;2023-02-02T08:31:50;149930.75;;;15.49;62.39
6034;BME280;3045;43.226;27.858;2023-02-02T08:34:18;149957.47;;;15.60;62.33
6034;BME280;3045;43.226;27.858;2023-02-02T08:36:44;149991.75;;;15.73;61.02
6034;BME280;3045;43.226;27.858;2023-02-02T08:39:12;149919.38;;;15.44;62.58
6034;BME280;3045;43.226;27.858;2023-02-02T08:41:38;150050.09;;;15.96;60.98
6034;BME280;3045;43.226;27.858;2023-02-02T08:44:06;149836.88;;;15.12;63.21
6034;BME280;3045;43.226;27.858;2023-02-02T08:46:35;149802.59;;;14.98;63.55
6034;BME280;3045;43.226;27.858;2023-02-02T08:49:02;149911.72;;;15.41;62.85
6034;BME280;3045;43.226;27.858;2023-02-02T08:51:29;150006.94;;;15.79;62.41
6034;BME280;3045;43.226;27.858;2023-02-02T08:53:55;150039.94;;;15.92;61.44
6034;BME280;3045;43.226;27.858;2023-02-02T08:56:24;149860.97;;;15.21;62.32
6034;BME280;3045;43.226;27.858;2023-02-02T08:58:52;149755.72;;;14.79;63.52
6034;BME280;3045;43.226;27.858;2023-02-02T09:01:21;149595.91;;;14.15;66.63
6034;BME280;3045;43.226;27.858;2023-02-02T09:03:52;149555.34;;;13.99;68.64
6034;BME280;3045;43.226;27.858;2023-02-02T09:06:20;149776.00;;;14.87;65.41
6034;BME280;3045;43.226;27.858;2023-02-02T09:08:47;149915.53;;;15.43;64.59
6034;BME280;3045;43.226;27.858;2023-02-02T09:11:15;149941.00;;;15.53;62.71
6034;BME280;3045;43.226;27.858;2023-02-02T09:13:44;149941.00;;;15.53;62.85
6034;BME280;3045;43.226;27.858;2023-02-02T09:16:12;150050.09;;;15.96;61.29
6034;BME280;3045;43.226;27.858;2023-02-02T09:18:41;150060.25;;;16.00;59.91
6034;BME280;3045;43.226;27.858;2023-02-02T09:21:12;150065.34;;;16.03;60.29
6034;BME280;3045;43.226;27.858;2023-02-02T09:23:41;149778.53;;;14.88;62.61
6034;BME280;3045;43.226;27.858;2023-02-02T09:26:09;149795.00;;;14.95;64.01
6034;BME280;3045;43.226;27.858;2023-02-02T09:28:37;149882.56;;;15.30;63.05
6034;BME280;3045;43.226;27.858;2023-02-02T09:31:04;149841.97;;;15.14;62.26
6034;BME280;3045;43.226;27.858;2023-02-02T09:33:31;149698.63;;;14.56;64.47
6034;BME280;3045;43.226;27.858;2023-02-02T09:36:03;149739.19;;;14.73;64.90
6034;BME280;3045;43.226;27.858;2023-02-02T09:38:32;150055.19;;;15.98;61.36
6034;BME280;3045;43.226;27.858;2023-02-02T09:41:00;150100.84;;;16.17;59.18
6034;BME280;3045;43.226;27.858;2023-02-02T09:43:38;150047.56;;;15.95;60.00
6034;BME280;3045;43.226;27.858;2023-02-02T09:46:18;150291.44;;;16.93;57.89
6034;BME280;3045;43.226;27.858;2023-02-02T09:48:55;150527.78;;;17.87;54.51
6034;BME280;3045;43.226;27.858;2023-02-02T09:51:29;150685.50;;;18.49;51.59
6034;BME280;3045;43.226;27.858;2023-02-02T09:54:05;150855.97;;;19.17;50.64
6034;BME280;3045;43.226;27.858;2023-02-02T09:56:39;150990.91;;;19.71;48.54
6034;BME280;3045;43.226;27.858;2023-02-02T09:59:14;151069.84;;;20.02;47.05
6034;BME280;3045;43.226;27.858;2023-02-02T10:01:43;151176.84;;;20.44;46.16
6034;BME280;3045;43.226;27.858;2023-02-02T10:04:15;150751.63;;;18.76;47.04
6034;BME280;3045;43.226;27.858;2023-02-02T10:06:46;150773.25;;;18.84;48.12
6034;BME280;3045;43.226;27.858;2023-02-02T10:09:29;150464.25;;;17.61;50.09
6034;BME280;3045;43.226;27.858;2023-02-02T10:12:05;150111.06;;;16.21;54.12
6034;BME280;3045;43.226;27.858;2023-02-02T10:14:45;150113.56;;;16.22;54.27
6034;BME280;3045;43.226;27.858;2023-02-02T10:17:34;150052.66;;;15.97;55.51
6034;BME280;3045;43.226;27.858;2023-02-02T10:20:14;150015.81;;;15.83;55.07
6034;BME280;3045;43.226;27.858;2023-02-02T10:22:44;150219.00;;;16.64;53.80
6034;BME280;3045;43.226;27.858;2023-02-02T10:25:15;150164.38;;;16.42;53.59
6034;BME280;3045;43.226;27.858;2023-02-02T10:27:48;150180.88;;;16.49;53.37
6034;BME280;3045;43.226;27.858;2023-02-02T10:30:18;150100.84;;;16.17;53.31
6034;BME280;3045;43.226;27.858;2023-02-02T10:32:47;150384.16;;;17.29;51.74
6034;BME280;3045;43.226;27.858;2023-02-02T10:35:28;150558.34;;;17.99;50.08
6034;BME280;3045;43.226;27.858;2023-02-02T10:38:02;150454.03;;;17.57;50.34
6034;BME280;3045;43.226;27.858;2023-02-02T10:40:44;150152.97;;;16.37;53.37
6034;BME280;3045;43.226;27.858;2023-02-02T10:43:41;149801.38;;;14.97;56.64
6034;BME280;3045;43.226;27.858;2023-02-02T10:46:17;149722.72;;;14.66;58.59
6034;BME280;3045;43.226;27.858;2023-02-02T10:48:48;149537.56;;;13.92;61.47
6034;BME280;3045;43.226;27.858;2023-02-02T10:51:20;149536.34;;;13.92;63.03
6034;BME280;3045;43.226;27.858;2023-02-02T10:53:52;149656.78;;;14.40;63.03
6034;BME280;3045;43.226;27.858;2023-02-02T10:56:25;149788.69;;;14.92;60.57
6034;BME280;3045;43.226;27.858;2023-02-02T10:59:00;150100.84;;;16.17;56.99
6034;BME280;3045;43.226;27.858;2023-02-02T11:01:31;150557.06;;;17.98;51.70
6034;BME280;3045;43.226;27.858;2023-02-02T11:03:58;150737.69;;;18.70;49.07
6034;BME280;3045;43.226;27.858;2023-02-02T11:06:43;151171.72;;;20.42;45.03
6034;BME280;3045;43.226;27.858;2023-02-02T11:09:18;151022.72;;;19.83;44.47
6034;BME280;3045;43.226;27.858;2023-02-02T11:11:50;150857.25;;;19.17;45.19
6034;BME280;3045;43.226;27.858;2023-02-02T11:14:28;150520.19;;;17.84;46.67
6034;BME280;3045;43.226;27.858;2023-02-02T11:17:01;150196.13;;;16.55;49.58
6034;BME280;3045;43.226;27.858;2023-02-02T11:19:29;150238.09;;;16.71;49.52
6034;BME280;3045;43.226;27.858;2023-02-02T11:21:58;150183.44;;;16.50;50.51
6034;BME280;3045;43.226;27.858;2023-02-02T11:24:27;150182.16;;;16.49;50.18
6034;BME280;3045;43.226;27.858;2023-02-02T11:26:59;150010.75;;;15.81;51.63
6034;BME280;3045;43.226;27.858;2023-02-02T11:29:30;149862.25;;;15.22;52.77
6034;BME280;3045;43.226;27.858;2023-02-02T11:32:17;149731.59;;;14.70;55.21
6034;BME280;3045;43.226;27.858;2023-02-02T11:34:44;149631.41;;;14.30;57.50
6034;BME280;3045;43.226;27.858;2023-02-02T11:37:12;149772.19;;;14.86;57.74
6034;BME280;3045;43.226;27.858;2023-02-02T11:39:40;149778.53;;;14.88;58.18
6034;BME280;3045;43.226;27.858;2023-02-02T11:42:12;149587.03;;;14.12;60.37
6034;BME280;3045;43.226;27.858;2023-02-02T11:44:43;149404.56;;;13.39;63.26
6034;BME280;3045;43.226;27.858;2023-02-02T11:47:18;149217.09;;;12.64;66.96
6034;BME280;3045;43.226;27.858;2023-02-02T11:49:47;148995.56;;;11.76;71.54
6034;BME280;3045;43.226;27.858;2023-02-02T11:52:18;149057.59;;;12.01;73.40
6034;BME280;3045;43.226;27.858;2023-02-02T11:54:49;149058.81;;;12.01;75.54
6034;BME280;3045;43.226;27.858;2023-02-02T11:57:20;149081.59;;;12.10;77.20
6034;BME280;3045;43.226;27.858;2023-02-02T11:59:49;149076.56;;;12.08;76.09
6034;BME280;3045;43.226;27.858;2023-02-02T12:02:28;149081.59;;;12.10;76.15
6034;BME280;3045;43.226;27.858;2023-02-02T12:05:13;149010.75;;;11.82;77.87
6034;BME280;3045;43.226;27.858;2023-02-02T12:07:41;148984.13;;;11.71;78.02
6034;BME280;3045;43.226;27.858;2023-02-02T12:10:15;148981.63;;;11.70;78.74
6034;BME280;3045;43.226;27.858;2023-02-02T12:12:55;148975.25;;;11.68;79.98
6034;BME280;3045;43.226;27.858;2023-02-02T12:15:34;148982.88;;;11.71;80.88
6034;BME280;3045;43.226;27.858;2023-02-02T12:18:19;148942.38;;;11.55;82.18
6034;BME280;3045;43.226;27.858;2023-02-02T12:20:54;148966.41;;;11.64;81.10
6034;BME280;3045;43.226;27.858;2023-02-02T12:23:39;148971.50;;;11.66;80.34
6034;BME280;3045;43.226;27.858;2023-02-02T12:26:22;148919.63;;;11.45;81.52
6034;BME280;3045;43.226;27.858;2023-02-02T12:29:13;148929.75;;;11.50;81.20
6034;BME280;3045;43.226;27.858;2023-02-02T12:31:52;148891.78;;;11.34;81.02
6034;BME280;3045;43.226;27.858;2023-02-02T12:34:31;148880.41;;;11.30;80.65
6034;BME280;3045;43.226;27.858;2023-02-02T12:37:09;148894.31;;;11.35;82.17
6034;BME280;3045;43.226;27.858;2023-02-02T12:39:48;148861.44;;;11.22;84.15
6034;BME280;3045;43.226;27.858;2023-02-02T12:42:44;148848.78;;;11.17;86.52
6034;BME280;3045;43.226;27.858;2023-02-02T12:45:38;148863.97;;;11.23;88.52
6034;BME280;3045;43.226;27.858;2023-02-02T12:48:20;148891.78;;;11.34;87.89
6034;BME280;3045;43.226;27.858;2023-02-02T12:51:00;148879.13;;;11.29;88.13
6034;BME280;3045;43.226;27.858;2023-02-02T12:53:43;148901.91;;;11.38;89.13
6034;BME280;3045;43.226;27.858;2023-02-02T12:56:22;148882.94;;;11.31;90.51
6034;BME280;3045;43.226;27.858;2023-02-02T12:59:00;148933.53;;;11.51;89.97
6034;BME280;3045;43.226;27.858;2023-02-02T13:01:43;148932.25;;;11.51;90.01
6034;BME280;3045;43.226;27.858;2023-02-02T13:07:34;148932.25;;;11.51;91.06
6034;BME280;3045;43.226;27.858;2023-02-02T13:10:12;148933.53;;;11.51;89.68
6034;BME280;3045;43.226;27.858;2023-02-02T13:12:47;148927.22;;;11.49;89.69
6034;BME280;3045;43.226;27.858;2023-02-02T13:15:18;148899.34;;;11.37;90.05
6034;BME280;3045;43.226;27.858;2023-02-02T13:17:51;148909.47;;;11.41;89.88
6034;BME280;3045;43.226;27.858;2023-02-02T13:20:27;148928.47;;;11.49;89.28
6034;BME280;3045;43.226;27.858;2023-02-02T13:23:00;148912.00;;;11.42;89.37
6034;BME280;3045;43.226;27.858;2023-02-02T13:25:30;148927.22;;;11.49;88.72